sensor_id;sensor_type;location;lat;lon;timestamp;P1;P2;P0
44933;PMS3003;30667;43.614;1.442;2023-04-06T00:00:13;18.50;17.25;10.00
44933;PMS3003;30667;43.614;1.442;2023-04-06T00:02:39;20.40;17.00;10.60
44933;PMS3003;30667;43.614;1.442;2023-04-06T00:05:05;18.80;18.00;11.20
44933;PMS3003;30667;43.614;1.442;2023-04-06T00:07:31;19.40;18.20;11.60
44933;PMS3003;30667;43.614;1.442;2023-04-06T00:09:58;18.00;17.00;10.80
44933;PMS3003;30667;43.614;1.442;2023-04-06T00:12:23;19.25;19.25;11.50
44933;PMS3003;30667;43.614;1.442;2023-04-06T00:14:49;17.25;17.00;11.00
44933;PMS3003;30667;43.614;1.442;2023-04-06T00:17:15;17.00;17.00;10.00
44933;PMS3003;30667;43.614;1.442;2023-04-06T00:19:40;18.00;17.75;11.00
44933;PMS3003;30667;43.614;1.442;2023-04-06T00:22:05;19.25;19.25;11.75
44933;PMS3003;30667;43.614;1.442;2023-04-06T00:24:31;19.00;19.00;10.25
44933;PMS3003;30667;43.614;1.442;2023-04-06T00:26:56;20.50;18.25;11.00
44933;PMS3003;30667;43.614;1.442;2023-04-06T00:29:22;20.25;19.50;11.00
44933;PMS3003;30667;43.614;1.442;2023-04-06T00:31:47;23.00;18.00;12.75
44933;PMS3003;30667;43.614;1.442;2023-04-06T00:34:12;22.25;17.75;11.00
44933;PMS3003;30667;43.614;1.442;2023-04-06T00:36:39;20.20;17.60;10.00
44933;PMS3003;30667;43.614;1.442;2023-04-06T00:39:05;19.00;18.00;10.00
44933;PMS3003;30667;43.614;1.442;2023-04-06T00:41:31;15.00;14.00;7.75
44933;PMS3003;30667;43.614;1.442;2023-04-06T00:43:56;17.25;15.50;9.00
44933;PMS3003;30667;43.614;1.442;2023-04-06T00:46:22;14.25;13.25;9.00
44933;PMS3003;30667;43.614;1.442;2023-04-06T00:48:47;19.25;17.00;10.25
44933;PMS3003;30667;43.614;1.442;2023-04-06T00:51:13;16.75;14.00;8.25
44933;PMS3003;30667;43.614;1.442;2023-04-06T00:53:38;14.00;14.00;9.00
44933;PMS3003;30667;43.614;1.442;2023-04-06T00:56:04;16.75;13.25;9.00
44933;PMS3003;30667;43.614;1.442;2023-04-06T00:58:30;13.75;13.75;8.00
44933;PMS3003;30667;43.614;1.442;2023-04-06T01:00:55;14.00;14.00;9.25
44933;PMS3003;30667;43.614;1.442;2023-04-06T01:03:21;14.50;14.00;9.00
44933;PMS3003;30667;43.614;1.442;2023-04-06T01:05:46;14.00;13.25;6.75
44933;PMS3003;30667;43.614;1.442;2023-04-06T01:08:12;16.25;13.75;8.25
44933;PMS3003;30667;43.614;1.442;2023-04-06T01:10:37;13.25;13.00;8.00
44933;PMS3003;30667;43.614;1.442;2023-04-06T01:13:02;11.75;11.75;6.00
44933;PMS3003;30667;43.614;1.442;2023-04-06T01:15:28;12.80;12.00;7.20
44933;PMS3003;30667;43.614;1.442;2023-04-06T01:17:55;14.00;13.00;7.80
44933;PMS3003;30667;43.614;1.442;2023-04-06T01:20:20;13.50;12.50;6.75
44933;PMS3003;30667;43.614;1.442;2023-04-06T01:22:46;13.50;12.00;6.00
44933;PMS3003;30667;43.614;1.442;2023-04-06T01:25:11;13.00;12.00;6.00
44933;PMS3003;30667;43.614;1.442;2023-04-06T01:27:37;13.00;12.50;7.75
44933;PMS3003;30667;43.614;1.442;2023-04-06T01:30:02;12.25;10.00;6.00
44933;PMS3003;30667;43.614;1.442;2023-04-06T01:32:28;11.60;10.80;6.00
44933;PMS3003;30667;43.614;1.442;2023-04-06T01:34:53;9.75;9.00;5.00
44933;PMS3003;30667;43.614;1.442;2023-04-06T01:37:19;12.40;12.00;7.20
44933;PMS3003;30667;43.614;1.442;2023-04-06T01:39:45;12.50;10.00;6.00
44933;PMS3003;30667;43.614;1.442;2023-04-06T01:42:11;12.60;11.80;6.40
44933;PMS3003;30667;43.614;1.442;2023-04-06T01:44:36;13.00;12.00;6.00
44933;PMS3003;30667;43.614;1.442;2023-04-06T01:47:02;11.75;10.00;6.00
44933;PMS3003;30667;43.614;1.442;2023-04-06T01:49:27;13.00;11.75;6.00
44933;PMS3003;30667;43.614;1.442;2023-04-06T01:51:53;12.00;9.75;6.00
44933;PMS3003;30667;43.614;1.442;2023-04-06T01:54:19;12.00;11.40;6.20
44933;PMS3003;30667;43.614;1.442;2023-04-06T01:56:44;12.75;10.00;5.00
44933;PMS3003;30667;43.614;1.442;2023-04-06T01:59:10;13.00;10.25;5.25
44933;PMS3003;30667;43.614;1.442;2023-04-06T02:01:36;13.00;12.75;6.00
44933;PMS3003;30667;43.614;1.442;2023-04-06T02:04:01;13.75;12.50;7.75
44933;PMS3003;30667;43.614;1.442;2023-04-06T02:06:26;11.75;11.50;5.00
44933;PMS3003;30667;43.614;1.442;2023-04-06T02:08:52;10.00;10.00;5.00
44933;PMS3003;30667;43.614;1.442;2023-04-06T02:11:18;9.50;9.00;5.00
44933;PMS3003;30667;43.614;1.442;2023-04-06T02:13:43;13.25;11.50;6.00
44933;PMS3003;30667;43.614;1.442;2023-04-06T02:16:08;10.75;9.75;5.00
44933;PMS3003;30667;43.614;1.442;2023-04-06T02:18:34;14.50;9.00;5.00
44933;PMS3003;30667;43.614;1.442;2023-04-06T02:21:00;10.25;9.50;5.00
44933;PMS3003;30667;43.614;1.442;2023-04-06T02:23:25;9.75;9.75;5.25
44933;PMS3003;30667;43.614;1.442;2023-04-06T02:25:51;11.40;9.40;5.20
44933;PMS3003;30667;43.614;1.442;2023-04-06T02:28:16;10.00;10.00;6.00
44933;PMS3003;30667;43.614;1.442;2023-04-06T02:30:42;9.50;9.00;5.00
44933;PMS3003;30667;43.614;1.442;2023-04-06T02:33:07;9.00;9.00;5.25
44933;PMS3003;30667;43.614;1.442;2023-04-06T02:35:33;12.00;12.00;5.00
44933;PMS3003;30667;43.614;1.442;2023-04-06T02:37:58;13.00;12.00;5.00
44933;PMS3003;30667;43.614;1.442;2023-04-06T02:40:24;10.75;10.75;5.25
44933;PMS3003;30667;43.614;1.442;2023-04-06T02:42:49;10.50;10.50;6.00
44933;PMS3003;30667;43.614;1.442;2023-04-06T02:45:15;9.00;9.00;5.00
44933;PMS3003;30667;43.614;1.442;2023-04-06T02:47:41;8.80;8.40;5.00
44933;PMS3003;30667;43.614;1.442;2023-04-06T02:50:07;10.50;10.00;5.25
44933;PMS3003;30667;43.614;1.442;2023-04-06T02:52:32;11.50;11.25;6.00
44933;PMS3003;30667;43.614;1.442;2023-04-06T02:54:58;12.00;11.75;4.00
44933;PMS3003;30667;43.614;1.442;2023-04-06T02:57:23;13.00;10.75;5.75
44933;PMS3003;30667;43.614;1.442;2023-04-06T02:59:48;13.00;11.50;5.25
44933;PMS3003;30667;43.614;1.442;2023-04-06T03:02:14;12.50;12.00;5.00
44933;PMS3003;30667;43.614;1.442;2023-04-06T03:04:40;10.25;10.00;5.00
44933;PMS3003;30667;43.614;1.442;2023-04-06T03:07:05;9.75;9.75;5.00
44933;PMS3003;30667;43.614;1.442;2023-04-06T03:09:30;10.00;9.00;4.75
44933;PMS3003;30667;43.614;1.442;2023-04-06T03:11:56;11.00;9.50;5.00
44933;PMS3003;30667;43.614;1.442;2023-04-06T03:14:22;10.20;9.80;5.00
44933;PMS3003;30667;43.614;1.442;2023-04-06T03:16:48;10.75;9.00;5.00
44933;PMS3003;30667;43.614;1.442;2023-04-06T03:19:14;9.60;9.00;5.00
44933;PMS3003;30667;43.614;1.442;2023-04-06T03:21:40;9.80;9.00;5.00
44933;PMS3003;30667;43.614;1.442;2023-04-06T03:24:06;11.20;11.00;5.20
44933;PMS3003;30667;43.614;1.442;2023-04-06T03:26:32;10.60;10.60;5.80
44933;PMS3003;30667;43.614;1.442;2023-04-06T03:28:57;10.00;8.50;4.75
44933;PMS3003;30667;43.614;1.442;2023-04-06T03:31:23;9.75;9.75;5.00
44933;PMS3003;30667;43.614;1.442;2023-04-06T03:33:48;10.25;10.25;5.00
44933;PMS3003;30667;43.614;1.442;2023-04-06T03:36:13;10.00;10.00;5.50
44933;PMS3003;30667;43.614;1.442;2023-04-06T03:38:39;8.00;8.00;5.00
44933;PMS3003;30667;43.614;1.442;2023-04-06T03:41:05;9.25;9.25;4.00
44933;PMS3003;30667;43.614;1.442;2023-04-06T03:43:30;9.00;9.00;5.00
44933;PMS3003;30667;43.614;1.442;2023-04-06T03:45:55;10.00;9.50;5.00
44933;PMS3003;30667;43.614;1.442;2023-04-06T03:48:21;8.25;8.25;4.00
44933;PMS3003;30667;43.614;1.442;2023-04-06T03:50:46;8.25;8.00;4.00
44933;PMS3003;30667;43.614;1.442;2023-04-06T03:53:12;9.00;9.00;5.25
44933;PMS3003;30667;43.614;1.442;2023-04-06T03:55:37;8.75;8.50;5.00
44933;PMS3003;30667;43.614;1.442;2023-04-06T03:58:03;8.25;8.25;4.00
44933;PMS3003;30667;43.614;1.442;2023-04-06T04:00:28;11.75;9.50;5.25
44933;PMS3003;30667;43.614;1.442;2023-04-06T04:02:54;10.60;9.00;4.40
44933;PMS3003;30667;43.614;1.442;2023-04-06T04:05:19;12.00;10.25;5.75
44933;PMS3003;30667;43.614;1.442;2023-04-06T04:07:49;11.40;10.00;5.00
44933;PMS3003;30667;43.614;1.442;2023-04-06T04:10:15;11.00;9.50;4.50
44933;PMS3003;30667;43.614;1.442;2023-04-06T04:12:40;11.50;10.00;5.25
44933;PMS3003;30667;43.614;1.442;2023-04-06T04:15:06;11.75;10.00;5.00
44933;PMS3003;30667;43.614;1.442;2023-04-06T04:17:32;12.00;9.60;4.60
44933;PMS3003;30667;43.614;1.442;2023-04-06T04:19:57;12.75;11.50;5.25
44933;PMS3003;30667;43.614;1.442;2023-04-06T04:22:23;14.75;9.50;5.00
44933;PMS3003;30667;43.614;1.442;2023-04-06T04:24:48;9.00;8.00;4.00
44933;PMS3003;30667;43.614;1.442;2023-04-06T04:27:13;13.00;9.75;5.00
44933;PMS3003;30667;43.614;1.442;2023-04-06T04:29:39;12.00;10.00;5.00
44933;PMS3003;30667;43.614;1.442;2023-04-06T04:32:04;11.00;9.00;5.00
44933;PMS3003;30667;43.614;1.442;2023-04-06T04:34:30;12.00;10.00;5.00
44933;PMS3003;30667;43.614;1.442;2023-04-06T04:36:56;11.80;9.80;4.00
44933;PMS3003;30667;43.614;1.442;2023-04-06T04:39:21;10.25;9.25;4.50
44933;PMS3003;30667;43.614;1.442;2023-04-06T04:41:46;9.75;9.50;5.50
44933;PMS3003;30667;43.614;1.442;2023-04-06T04:44:12;8.00;8.00;4.50
44933;PMS3003;30667;43.614;1.442;2023-04-06T04:46:37;8.50;8.25;4.50
44933;PMS3003;30667;43.614;1.442;2023-04-06T04:49:03;12.00;10.00;4.50
44933;PMS3003;30667;43.614;1.442;2023-04-06T04:51:29;8.50;8.50;5.00
44933;PMS3003;30667;43.614;1.442;2023-04-06T04:53:55;10.00;9.00;5.00
44933;PMS3003;30667;43.614;1.442;2023-04-06T04:56:21;12.00;10.00;5.00
44933;PMS3003;30667;43.614;1.442;2023-04-06T04:58:46;10.75;9.75;5.00
44933;PMS3003;30667;43.614;1.442;2023-04-06T05:01:11;10.00;9.00;5.00
44933;PMS3003;30667;43.614;1.442;2023-04-06T05:03:37;10.00;9.50;4.75
44933;PMS3003;30667;43.614;1.442;2023-04-06T05:06:04;11.80;10.20;5.00
44933;PMS3003;30667;43.614;1.442;2023-04-06T05:08:30;8.80;8.20;4.20
44933;PMS3003;30667;43.614;1.442;2023-04-06T05:10:55;9.50;9.25;5.25
44933;PMS3003;30667;43.614;1.442;2023-04-06T05:13:21;8.75;8.75;5.00
44933;PMS3003;30667;43.614;1.442;2023-04-06T05:15:46;12.00;10.00;4.75
44933;PMS3003;30667;43.614;1.442;2023-04-06T05:18:13;9.60;9.60;5.00
44933;PMS3003;30667;43.614;1.442;2023-04-06T05:20:38;11.75;9.25;5.00
44933;PMS3003;30667;43.614;1.442;2023-04-06T05:23:04;9.25;9.00;5.00
44933;PMS3003;30667;43.614;1.442;2023-04-06T05:25:30;13.50;12.00;6.00
44933;PMS3003;30667;43.614;1.442;2023-04-06T05:27:56;9.00;9.00;5.00
44933;PMS3003;30667;43.614;1.442;2023-04-06T05:30:21;12.75;12.75;5.00
44933;PMS3003;30667;43.614;1.442;2023-04-06T05:32:47;11.50;10.25;5.00
44933;PMS3003;30667;43.614;1.442;2023-04-06T05:35:12;12.00;12.00;5.75
44933;PMS3003;30667;43.614;1.442;2023-04-06T05:37:38;12.25;12.00;6.00
44933;PMS3003;30667;43.614;1.442;2023-04-06T05:40:04;10.80;10.20;5.20
44933;PMS3003;30667;43.614;1.442;2023-04-06T05:42:39;10.00;10.00;5.00
44933;PMS3003;30667;43.614;1.442;2023-04-06T05:45:09;12.20;12.20;5.60
44933;PMS3003;30667;43.614;1.442;2023-04-06T05:47:41;14.80;12.20;5.20
44933;PMS3003;30667;43.614;1.442;2023-04-06T05:50:10;9.80;9.00;5.00
44933;PMS3003;30667;43.614;1.442;2023-04-06T05:52:36;13.20;11.60;6.00
44933;PMS3003;30667;43.614;1.442;2023-04-06T05:55:02;12.00;11.00;6.00
44933;PMS3003;30667;43.614;1.442;2023-04-06T05:57:28;11.40;9.40;5.00
44933;PMS3003;30667;43.614;1.442;2023-04-06T05:59:53;11.25;10.25;6.00
44933;PMS3003;30667;43.614;1.442;2023-04-06T06:02:20;11.40;10.80;4.80
44933;PMS3003;30667;43.614;1.442;2023-04-06T06:04:46;14.00;13.00;7.80
44933;PMS3003;30667;43.614;1.442;2023-04-06T06:07:12;14.25;11.00;5.75
44933;PMS3003;30667;43.614;1.442;2023-04-06T06:09:37;12.00;12.00;6.00
44933;PMS3003;30667;43.614;1.442;2023-04-06T06:12:02;13.00;11.50;5.75
44933;PMS3003;30667;43.614;1.442;2023-04-06T06:14:28;16.00;13.25;6.25
44933;PMS3003;30667;43.614;1.442;2023-04-06T06:16:53;15.50;15.50;9.00
44933;PMS3003;30667;43.614;1.442;2023-04-06T06:19:19;12.60;11.80;6.60
44933;PMS3003;30667;43.614;1.442;2023-04-06T06:21:45;12.50;12.00;7.25
44933;PMS3003;30667;43.614;1.442;2023-04-06T06:24:10;12.00;11.25;7.50
44933;PMS3003;30667;43.614;1.442;2023-04-06T06:26:36;12.50;12.50;6.00
44933;PMS3003;30667;43.614;1.442;2023-04-06T06:29:02;18.20;13.40;7.80
44933;PMS3003;30667;43.614;1.442;2023-04-06T06:31:30;13.40;13.00;6.20
44933;PMS3003;30667;43.614;1.442;2023-04-06T06:33:55;14.00;13.00;8.00
44933;PMS3003;30667;43.614;1.442;2023-04-06T06:36:21;14.25;12.25;6.25
44933;PMS3003;30667;43.614;1.442;2023-04-06T06:38:46;12.25;12.25;7.50
44933;PMS3003;30667;43.614;1.442;2023-04-06T06:41:12;16.25;16.25;9.00
44933;PMS3003;30667;43.614;1.442;2023-04-06T06:43:37;17.00;14.50;8.75
44933;PMS3003;30667;43.614;1.442;2023-04-06T06:46:03;16.50;15.00;7.50
44933;PMS3003;30667;43.614;1.442;2023-04-06T06:48:29;14.00;12.40;7.20
44933;PMS3003;30667;43.614;1.442;2023-04-06T06:50:55;13.00;13.00;7.75
44933;PMS3003;30667;43.614;1.442;2023-04-06T06:53:20;15.80;14.40;8.20
44933;PMS3003;30667;43.614;1.442;2023-04-06T06:55:46;14.00;13.25;7.75
44933;PMS3003;30667;43.614;1.442;2023-04-06T06:58:13;13.80;13.80;8.60
44933;PMS3003;30667;43.614;1.442;2023-04-06T07:00:39;19.80;18.40;10.80
44933;PMS3003;30667;43.614;1.442;2023-04-06T07:03:05;27.25;24.25;16.00
44933;PMS3003;30667;43.614;1.442;2023-04-06T07:05:30;27.25;27.25;17.00
44933;PMS3003;30667;43.614;1.442;2023-04-06T07:07:56;25.00;24.25;17.50
44933;PMS3003;30667;43.614;1.442;2023-04-06T07:10:21;22.50;22.50;16.00
44933;PMS3003;30667;43.614;1.442;2023-04-06T07:12:47;23.50;22.25;16.50
44933;PMS3003;30667;43.614;1.442;2023-04-06T07:15:13;28.00;25.25;16.00
44933;PMS3003;30667;43.614;1.442;2023-04-06T07:17:38;24.50;24.00;17.00
44933;PMS3003;30667;43.614;1.442;2023-04-06T07:20:06;24.80;20.80;14.00
44933;PMS3003;30667;43.614;1.442;2023-04-06T07:22:31;22.00;18.75;10.50
44933;PMS3003;30667;43.614;1.442;2023-04-06T07:24:57;23.25;21.00;13.00
44933;PMS3003;30667;43.614;1.442;2023-04-06T07:27:22;22.75;21.00;13.00
44933;PMS3003;30667;43.614;1.442;2023-04-06T07:29:48;23.75;21.50;13.25
44933;PMS3003;30667;43.614;1.442;2023-04-06T07:32:13;24.75;23.50;16.25
44933;PMS3003;30667;43.614;1.442;2023-04-06T07:34:39;25.25;22.25;14.25
44933;PMS3003;30667;43.614;1.442;2023-04-06T07:37:04;22.50;20.50;14.00
44933;PMS3003;30667;43.614;1.442;2023-04-06T07:39:30;22.00;20.75;15.50
44933;PMS3003;30667;43.614;1.442;2023-04-06T07:41:56;25.50;22.00;14.00
44933;PMS3003;30667;43.614;1.442;2023-04-06T07:44:21;25.50;21.50;14.25
44933;PMS3003;30667;43.614;1.442;2023-04-06T07:46:47;24.00;23.00;15.75
44933;PMS3003;30667;43.614;1.442;2023-04-06T07:49:12;20.75;17.75;12.75
44933;PMS3003;30667;43.614;1.442;2023-04-06T07:51:38;20.75;17.00;10.25
44933;PMS3003;30667;43.614;1.442;2023-04-06T07:54:04;21.80;18.00;10.00
44933;PMS3003;30667;43.614;1.442;2023-04-06T07:56:30;18.40;16.80;10.40
44933;PMS3003;30667;43.614;1.442;2023-04-06T07:58:55;13.50;12.50;8.25
44933;PMS3003;30667;43.614;1.442;2023-04-06T08:01:22;17.00;15.00;10.00
44933;PMS3003;30667;43.614;1.442;2023-04-06T08:03:47;15.25;14.00;7.00
44933;PMS3003;30667;43.614;1.442;2023-04-06T08:06:13;13.60;13.60;9.00
44933;PMS3003;30667;43.614;1.442;2023-04-06T08:08:39;17.00;15.00;8.75
44933;PMS3003;30667;43.614;1.442;2023-04-06T08:11:05;16.25;14.25;7.00
44933;PMS3003;30667;43.614;1.442;2023-04-06T08:13:30;14.25;13.00;8.75
44933;PMS3003;30667;43.614;1.442;2023-04-06T08:15:56;10.00;10.00;6.00
44933;PMS3003;30667;43.614;1.442;2023-04-06T08:18:21;14.80;14.40;7.20
44933;PMS3003;30667;43.614;1.442;2023-04-06T08:20:47;18.00;14.00;9.00
44933;PMS3003;30667;43.614;1.442;2023-04-06T08:23:14;17.00;15.40;9.60
44933;PMS3003;30667;43.614;1.442;2023-04-06T08:25:40;15.20;14.00;9.00
44933;PMS3003;30667;43.614;1.442;2023-04-06T08:28:06;14.80;13.80;9.00
44933;PMS3003;30667;43.614;1.442;2023-04-06T08:30:33;15.40;14.60;9.00
44933;PMS3003;30667;43.614;1.442;2023-04-06T08:32:59;17.25;15.50;8.00
44933;PMS3003;30667;43.614;1.442;2023-04-06T08:35:25;16.25;15.00;7.75
44933;PMS3003;30667;43.614;1.442;2023-04-06T08:37:51;19.20;14.60;7.20
44933;PMS3003;30667;43.614;1.442;2023-04-06T08:40:16;14.00;13.50;8.50
44933;PMS3003;30667;43.614;1.442;2023-04-06T08:42:44;14.50;14.00;7.50
44933;PMS3003;30667;43.614;1.442;2023-04-06T08:45:19;13.00;12.20;7.20
44933;PMS3003;30667;43.614;1.442;2023-04-06T08:47:46;14.80;12.60;7.00
44933;PMS3003;30667;43.614;1.442;2023-04-06T08:50:19;17.00;15.80;10.00
44933;PMS3003;30667;43.614;1.442;2023-04-06T08:52:48;15.40;14.40;9.00
44933;PMS3003;30667;43.614;1.442;2023-04-06T08:55:14;13.80;12.00;8.40
44933;PMS3003;30667;43.614;1.442;2023-04-06T08:57:40;18.20;15.00;10.00
44933;PMS3003;30667;43.614;1.442;2023-04-06T09:00:07;18.00;15.40;10.00
44933;PMS3003;30667;43.614;1.442;2023-04-06T09:02:37;16.80;14.60;7.00
44933;PMS3003;30667;43.614;1.442;2023-04-06T09:05:04;13.80;13.20;7.40
44933;PMS3003;30667;43.614;1.442;2023-04-06T09:07:29;14.75;13.25;7.00
44933;PMS3003;30667;43.614;1.442;2023-04-06T09:09:55;14.80;14.00;9.00
44933;PMS3003;30667;43.614;1.442;2023-04-06T09:12:30;14.50;14.00;7.00
44933;PMS3003;30667;43.614;1.442;2023-04-06T09:14:57;12.20;11.40;7.00
44933;PMS3003;30667;43.614;1.442;2023-04-06T09:17:24;14.40;14.00;8.80
44933;PMS3003;30667;43.614;1.442;2023-04-06T09:19:52;14.00;11.80;6.00
44933;PMS3003;30667;43.614;1.442;2023-04-06T09:22:18;12.80;10.00;5.80
44933;PMS3003;30667;43.614;1.442;2023-04-06T09:27:10;11.25;11.00;6.00
44933;PMS3003;30667;43.614;1.442;2023-04-06T09:29:35;12.00;10.00;6.00
44933;PMS3003;30667;43.614;1.442;2023-04-06T09:32:05;10.40;10.40;5.00
44933;PMS3003;30667;43.614;1.442;2023-04-06T09:34:31;13.00;11.00;5.00
44933;PMS3003;30667;43.614;1.442;2023-04-06T09:36:57;10.80;8.80;4.60
44933;PMS3003;30667;43.614;1.442;2023-04-06T09:39:23;12.00;11.25;6.00
44933;PMS3003;30667;43.614;1.442;2023-04-06T09:41:52;10.80;9.60;5.00
44933;PMS3003;30667;43.614;1.442;2023-04-06T09:44:19;10.20;8.20;5.00
44933;PMS3003;30667;43.614;1.442;2023-04-06T09:46:45;7.80;7.80;5.00
44933;PMS3003;30667;43.614;1.442;2023-04-06T09:49:12;12.20;10.80;5.00
44933;PMS3003;30667;43.614;1.442;2023-04-06T09:54:05;13.60;10.60;6.60
44933;PMS3003;30667;43.614;1.442;2023-04-06T09:56:34;20.60;19.20;10.80
44933;PMS3003;30667;43.614;1.442;2023-04-06T09:59:08;16.80;15.80;9.40
44933;PMS3003;30667;43.614;1.442;2023-04-06T10:01:38;11.00;10.40;6.00
44933;PMS3003;30667;43.614;1.442;2023-04-06T10:07:07;9.80;9.80;6.00
44933;PMS3003;30667;43.614;1.442;2023-04-06T10:09:36;11.80;11.80;7.00
44933;PMS3003;30667;43.614;1.442;2023-04-06T10:12:03;9.20;9.20;5.40
44933;PMS3003;30667;43.614;1.442;2023-04-06T10:14:30;10.00;10.00;6.00
44933;PMS3003;30667;43.614;1.442;2023-04-06T10:16:59;10.00;10.00;5.20
44933;PMS3003;30667;43.614;1.442;2023-04-06T10:19:26;10.00;10.00;6.00
44933;PMS3003;30667;43.614;1.442;2023-04-06T10:21:57;12.00;11.00;7.00
44933;PMS3003;30667;43.614;1.442;2023-04-06T10:24:25;9.80;9.40;5.20
44933;PMS3003;30667;43.614;1.442;2023-04-06T10:27:03;10.40;8.80;5.60
44933;PMS3003;30667;43.614;1.442;2023-04-06T10:29:47;9.20;8.20;5.20
44933;PMS3003;30667;43.614;1.442;2023-04-06T10:32:16;10.20;9.00;5.00
44933;PMS3003;30667;43.614;1.442;2023-04-06T10:34:41;8.25;8.00;5.00
44933;PMS3003;30667;43.614;1.442;2023-04-06T10:37:16;10.75;10.50;5.75
44933;PMS3003;30667;43.614;1.442;2023-04-06T10:39:52;10.40;10.40;5.80
44933;PMS3003;30667;43.614;1.442;2023-04-06T10:42:41;10.60;10.00;5.60
44933;PMS3003;30667;43.614;1.442;2023-04-06T10:45:07;7.20;7.20;5.00
44933;PMS3003;30667;43.614;1.442;2023-04-06T10:47:43;6.80;6.80;4.20
44933;PMS3003;30667;43.614;1.442;2023-04-06T10:50:09;8.50;8.50;4.75
44933;PMS3003;30667;43.614;1.442;2023-04-06T10:52:40;9.60;8.00;5.00
44933;PMS3003;30667;43.614;1.442;2023-04-06T10:55:06;7.50;7.00;2.75
44933;PMS3003;30667;43.614;1.442;2023-04-06T10:57:34;7.00;7.00;3.00
44933;PMS3003;30667;43.614;1.442;2023-04-06T11:00:01;7.40;7.40;3.40
44933;PMS3003;30667;43.614;1.442;2023-04-06T11:02:28;8.40;8.40;3.40
44933;PMS3003;30667;43.614;1.442;2023-04-06T11:04:55;11.00;6.50;3.00
44933;PMS3003;30667;43.614;1.442;2023-04-06T11:07:22;7.00;7.00;3.20
44933;PMS3003;30667;43.614;1.442;2023-04-06T11:09:49;8.00;7.00;3.00
44933;PMS3003;30667;43.614;1.442;2023-04-06T11:12:22;7.60;7.00;3.00
44933;PMS3003;30667;43.614;1.442;2023-04-06T11:14:54;7.40;7.40;3.40
44933;PMS3003;30667;43.614;1.442;2023-04-06T11:17:31;7.40;7.20;4.20
44933;PMS3003;30667;43.614;1.442;2023-04-06T11:20:04;7.00;7.00;3.00
44933;PMS3003;30667;43.614;1.442;2023-04-06T11:22:34;7.40;7.00;3.00
44933;PMS3003;30667;43.614;1.442;2023-04-06T11:25:06;8.00;7.25;2.75
44933;PMS3003;30667;43.614;1.442;2023-04-06T11:27:33;6.80;6.00;2.00
44933;PMS3003;30667;43.614;1.442;2023-04-06T11:29:59;7.20;7.00;3.00
44933;PMS3003;30667;43.614;1.442;2023-04-06T11:32:26;7.00;7.00;2.80
44933;PMS3003;30667;43.614;1.442;2023-04-06T11:34:51;7.00;6.50;2.00
44933;PMS3003;30667;43.614;1.442;2023-04-06T11:37:17;12.75;11.00;5.75
44933;PMS3003;30667;43.614;1.442;2023-04-06T11:39:52;19.50;16.00;8.75
44933;PMS3003;30667;43.614;1.442;2023-04-06T11:42:23;8.00;7.00;3.20
44933;PMS3003;30667;43.614;1.442;2023-04-06T11:44:57;9.20;8.00;3.40
44933;PMS3003;30667;43.614;1.442;2023-04-06T11:47:29;3.80;3.80;2.00
44933;PMS3003;30667;43.614;1.442;2023-04-06T11:50:06;11.00;9.80;4.60
44933;PMS3003;30667;43.614;1.442;2023-04-06T11:52:41;9.20;8.00;4.80
44933;PMS3003;30667;43.614;1.442;2023-04-06T11:55:11;4.20;3.80;1.80
44933;PMS3003;30667;43.614;1.442;2023-04-06T11:57:37;9.40;9.20;4.20
44933;PMS3003;30667;43.614;1.442;2023-04-06T12:00:03;7.00;6.00;2.50
44933;PMS3003;30667;43.614;1.442;2023-04-06T12:02:29;4.20;4.20;2.00
44933;PMS3003;30667;43.614;1.442;2023-04-06T12:04:55;7.60;6.00;2.00
44933;PMS3003;30667;43.614;1.442;2023-04-06T12:07:21;3.25;3.25;2.00
44933;PMS3003;30667;43.614;1.442;2023-04-06T12:09:46;7.00;6.00;2.00
44933;PMS3003;30667;43.614;1.442;2023-04-06T12:12:12;6.00;6.00;3.00
44933;PMS3003;30667;43.614;1.442;2023-04-06T12:14:37;3.75;3.25;1.50
44933;PMS3003;30667;43.614;1.442;2023-04-06T12:17:03;9.00;7.75;3.00
44933;PMS3003;30667;43.614;1.442;2023-04-06T12:19:28;6.75;6.50;3.00
44933;PMS3003;30667;43.614;1.442;2023-04-06T12:21:54;4.25;3.75;2.00
44933;PMS3003;30667;43.614;1.442;2023-04-06T12:24:19;6.75;4.75;2.00
44933;PMS3003;30667;43.614;1.442;2023-04-06T12:26:45;5.75;5.75;2.00
44933;PMS3003;30667;43.614;1.442;2023-04-06T12:29:10;7.25;6.00;2.25
44933;PMS3003;30667;43.614;1.442;2023-04-06T12:31:38;6.00;6.00;2.00
44933;PMS3003;30667;43.614;1.442;2023-04-06T12:34:05;3.00;3.00;1.00
44933;PMS3003;30667;43.614;1.442;2023-04-06T12:36:31;4.20;4.00;2.00
44933;PMS3003;30667;43.614;1.442;2023-04-06T12:38:57;3.50;3.50;1.50
44933;PMS3003;30667;43.614;1.442;2023-04-06T12:41:22;3.75;3.75;1.75
44933;PMS3003;30667;43.614;1.442;2023-04-06T12:43:48;4.25;3.00;1.00
44933;PMS3003;30667;43.614;1.442;2023-04-06T12:46:15;6.00;6.00;1.60
44933;PMS3003;30667;43.614;1.442;2023-04-06T12:48:40;4.25;3.00;1.00
44933;PMS3003;30667;43.614;1.442;2023-04-06T12:51:06;4.00;3.50;1.75
44933;PMS3003;30667;43.614;1.442;2023-04-06T12:53:32;6.80;4.00;2.00
44933;PMS3003;30667;43.614;1.442;2023-04-06T12:56:01;5.40;4.00;2.00
44933;PMS3003;30667;43.614;1.442;2023-04-06T12:58:27;4.00;3.80;1.00
44933;PMS3003;30667;43.614;1.442;2023-04-06T13:00:53;6.20;6.00;2.00
44933;PMS3003;30667;43.614;1.442;2023-04-06T13:03:19;4.00;3.60;1.40
44933;PMS3003;30667;43.614;1.442;2023-04-06T13:05:49;5.20;4.40;2.00
44933;PMS3003;30667;43.614;1.442;2023-04-06T13:08:16;5.20;4.00;2.00
44933;PMS3003;30667;43.614;1.442;2023-04-06T13:10:52;4.00;3.80;1.00
44933;PMS3003;30667;43.614;1.442;2023-04-06T13:13:21;4.40;4.40;2.00
44933;PMS3003;30667;43.614;1.442;2023-04-06T13:15:48;4.00;3.80;2.00
44933;PMS3003;30667;43.614;1.442;2023-04-06T13:18:13;3.75;3.75;2.00
44933;PMS3003;30667;43.614;1.442;2023-04-06T13:20:39;4.00;4.00;2.00
44933;PMS3003;30667;43.614;1.442;2023-04-06T13:23:05;5.00;4.00;2.00
44933;PMS3003;30667;43.614;1.442;2023-04-06T13:25:30;4.00;4.00;1.00
44933;PMS3003;30667;43.614;1.442;2023-04-06T13:27:57;4.00;3.00;1.00
44933;PMS3003;30667;43.614;1.442;2023-04-06T13:30:23;3.00;3.00;1.25
44933;PMS3003;30667;43.614;1.442;2023-04-06T13:32:48;2.00;2.00;1.00
44933;PMS3003;30667;43.614;1.442;2023-04-06T13:35:14;4.00;3.50;1.25
44933;PMS3003;30667;43.614;1.442;2023-04-06T13:37:39;4.00;3.75;2.00
44933;PMS3003;30667;43.614;1.442;2023-04-06T13:40:05;4.00;3.00;1.00
44933;PMS3003;30667;43.614;1.442;2023-04-06T13:42:31;4.00;4.00;1.00
44933;PMS3003;30667;43.614;1.442;2023-04-06T13:44:57;2.00;2.00;1.00
44933;PMS3003;30667;43.614;1.442;2023-04-06T13:47:24;2.40;2.40;0.80
44933;PMS3003;30667;43.614;1.442;2023-04-06T13:49:50;6.00;4.25;1.00
44933;PMS3003;30667;43.614;1.442;2023-04-06T13:52:16;3.40;3.00;1.00
44933;PMS3003;30667;43.614;1.442;2023-04-06T13:54:42;3.50;3.50;1.00
44933;PMS3003;30667;43.614;1.442;2023-04-06T13:57:07;5.75;3.50;1.50
44933;PMS3003;30667;43.614;1.442;2023-04-06T13:59:33;4.50;2.75;1.00
44933;PMS3003;30667;43.614;1.442;2023-04-06T14:02:00;3.80;3.80;1.00
44933;PMS3003;30667;43.614;1.442;2023-04-06T14:04:27;3.20;2.60;1.00
44933;PMS3003;30667;43.614;1.442;2023-04-06T14:06:53;4.00;3.75;1.75
44933;PMS3003;30667;43.614;1.442;2023-04-06T14:09:18;3.50;3.00;1.00